Time;durP1;ratioP1;P1;durP2;ratioP2;P2;SDS_P1;SDS_P2;PMS_P1;PMS_P2;Temp;Humidity;BMP_temperature;BMP_pressure;BME280_temperature;BME280_humidity;BME280_pressure;Samples;Min_cycle;Max_cycle;Signal;HPM_P1;HPM_P2
2022/08/23 00:00:32;;;;;;;;;;;;;;;19.03;68.23;101360.78;5076061;28;20015;-35
2022/08/23 00:02:57;;;;;;;;;;;;;;;18.98;68.41;101354.47;5074822;28;19920;-35
2022/08/23 00:05:23;;;;;;;;;;;;;;;18.96;68.56;101362.16;5074846;28;19920;-35
2022/08/23 00:07:48;;;;;;;;;;;;;;;18.94;68.48;101358.88;5075057;28;19919;-35
2022/08/23 00:10:14;;;;;;;;;;;;;;;18.91;68.53;101359.41;5076044;28;19916;-35
2022/08/23 00:12:40;;;;;;;;;;;;;;;18.89;68.56;101358.88;5075755;28;19930;-35
2022/08/23 00:15:06;;;;;;;;;;;;;;;18.87;68.50;101358.31;5074608;28;20010;-35
2022/08/23 00:17:31;;;;;;;;;;;;;;;18.83;68.94;101355.28;5074991;28;19913;-35
2022/08/23 00:19:56;;;;;;;;;;;;;;;18.83;68.96;101351.72;5075380;28;19958;-35
2022/08/23 00:22:22;;;;;;;;;;;;;;;18.81;69.50;101351.19;5074477;28;19980;-35
2022/08/23 00:24:48;;;;;;;;;;;;;;;18.77;69.35;101351.72;5075017;28;20417;-35
2022/08/23 00:27:14;;;;;;;;;;;;;;;18.73;69.47;101350.63;5074408;28;19919;-35
2022/08/23 00:29:45;;;;;;;;;;;;;;;18.71;69.49;101352.00;5074620;28;19919;-35
2022/08/23 00:32:15;;;;;;;;;;;;;;;18.66;69.75;101344.56;5074257;28;19919;-35
2022/08/23 00:34:40;;;;;;;;;;;;;;;18.63;69.46;101350.59;5075161;28;19912;-35
2022/08/23 00:37:06;;;;;;;;;;;;;;;18.61;69.91;101347.31;5073313;28;19916;-35
2022/08/23 00:39:31;;;;;;;;;;;;;;;18.57;70.09;101351.69;5074354;28;19958;-35
2022/08/23 00:41:59;;;;;;;;;;;;;;;18.56;70.04;101357.44;5075263;28;19955;-35
2022/08/23 00:50:08;;;;;;;;;;;;;;;18.52;69.88;101343.47;5074313;28;19919;-35
2022/08/23 00:52:37;;;;;;;;;;;;;;;18.50;70.31;101346.50;5074259;28;20394;-35
2022/08/23 00:55:03;;;;;;;;;;;;;;;18.48;70.07;101356.88;5074187;28;19912;-35
2022/08/23 00:57:29;;;;;;;;;;;;;;;18.46;70.59;101355.50;5073728;28;19999;-35
2022/08/23 00:59:54;;;;;;;;;;;;;;;18.43;70.38;101351.38;5074400;28;19912;-35
2022/08/23 01:02:20;;;;;;;;;;;;;;;18.39;70.29;101360.41;5074093;28;20349;-35
2022/08/23 01:04:53;;;;;;;;;;;;;;;18.37;70.56;101357.13;5073728;28;19916;-35
2022/08/23 01:07:34;;;;;;;;;;;;;;;18.34;71.11;101357.66;5074027;28;19913;-35
2022/08/23 01:10:01;;;;;;;;;;;;;;;18.32;71.51;101359.88;5073892;28;19912;-35
2022/08/23 01:12:38;;;;;;;;;;;;;;;18.30;71.30;101356.56;5074036;28;19919;-35
2022/08/23 01:15:05;;;;;;;;;;;;;;;18.28;71.10;101359.56;5074073;28;19955;-35
2022/08/23 01:17:53;;;;;;;;;;;;;;;18.28;71.24;101357.66;5072720;28;20003;-35
2022/08/23 01:20:21;;;;;;;;;;;;;;;18.30;71.34;101356.56;5074618;28;19974;-35
2022/08/23 01:22:52;;;;;;;;;;;;;;;18.28;71.00;101363.13;5073522;28;19919;-35
2022/08/23 01:25:20;;;;;;;;;;;;;;;18.25;71.10;101360.94;5072805;28;20272;-35
2022/08/23 01:27:46;;;;;;;;;;;;;;;18.23;71.08;101357.63;5073464;28;19939;-35
2022/08/23 01:30:12;;;;;;;;;;;;;;;18.21;71.20;101362.56;5073394;28;19916;-35
2022/08/23 01:32:43;;;;;;;;;;;;;;;18.18;71.78;101360.38;5073788;28;19951;-35
2022/08/23 01:35:08;;;;;;;;;;;;;;;18.14;71.68;101359.25;5073980;28;19912;-35
2022/08/23 01:37:33;;;;;;;;;;;;;;;18.13;71.65;101360.34;5073254;28;19957;-35
2022/08/23 01:39:59;;;;;;;;;;;;;;;18.11;72.18;101359.00;5073593;28;19916;-35
2022/08/23 01:42:24;;;;;;;;;;;;;;;18.08;72.01;101360.34;5073757;28;20344;-35
2022/08/23 01:44:49;;;;;;;;;;;;;;;18.05;71.91;101360.03;5074265;28;20371;-35
2022/08/23 01:47:15;;;;;;;;;;;;;;;18.01;72.10;101359.78;5073475;28;19967;-35
2022/08/23 01:49:40;;;;;;;;;;;;;;;18.00;72.08;101355.38;5073507;28;19912;-35
2022/08/23 01:52:05;;;;;;;;;;;;;;;17.96;72.81;101357.84;5073381;28;20376;-35
2022/08/23 01:54:30;;;;;;;;;;;;;;;17.93;72.30;101358.38;5073116;28;20020;-35
2022/08/23 01:56:56;;;;;;;;;;;;;;;17.93;72.66;101360.28;5073390;28;19913;-35
2022/08/23 01:59:21;;;;;;;;;;;;;;;17.92;72.32;101366.84;5073025;28;19996;-35
2022/08/23 02:01:46;;;;;;;;;;;;;;;17.92;72.72;101356.72;5073421;28;19916;-35
2022/08/23 02:04:12;;;;;;;;;;;;;;;17.89;72.56;101356.44;5073355;28;19927;-35
2022/08/23 02:06:37;;;;;;;;;;;;;;;17.89;72.72;101357.25;5073269;28;19916;-35
2022/08/23 02:09:03;;;;;;;;;;;;;;;17.88;73.25;101352.88;5073781;28;20010;-35
2022/08/23 02:11:39;;;;;;;;;;;;;;;17.87;72.75;101362.19;5073797;28;19912;-35
2022/08/23 02:14:07;;;;;;;;;;;;;;;17.90;75.96;101369.84;5073200;28;19958;-35
2022/08/23 02:16:34;;;;;;;;;;;;;;;17.89;74.12;101370.94;5073712;28;20377;-35
2022/08/23 02:19:01;;;;;;;;;;;;;;;17.91;73.58;101367.91;5073609;28;19959;-35
2022/08/23 02:21:30;;;;;;;;;;;;;;;17.91;73.87;101367.91;5073419;28;19921;-35
2022/08/23 02:23:55;;;;;;;;;;;;;;;17.92;73.91;101361.38;5073786;28;19913;-35
2022/08/23 02:26:22;;;;;;;;;;;;;;;17.88;74.07;101366.56;5077150;28;19935;-35
2022/08/23 02:28:50;;;;;;;;;;;;;;;17.84;74.02;101362.72;5077005;28;19919;-35
2022/08/23 02:31:15;;;;;;;;;;;;;;;17.82;74.40;101358.59;5077191;28;19913;-35
2022/08/23 02:33:40;;;;;;;;;;;;;;;17.79;74.25;101364.59;5077373;28;20320;-35
2022/08/23 02:36:05;;;;;;;;;;;;;;;17.79;73.92;101372.81;5076939;28;19923;-35
2022/08/23 02:38:31;;;;;;;;;;;;;;;17.81;75.53;101368.69;5076654;28;20372;-35
2022/08/23 02:40:57;;;;;;;;;;;;;;;17.82;73.67;101377.75;5077101;28;19912;-35
2022/08/23 02:43:22;;;;;;;;;;;;;;;17.84;74.61;101370.09;5075646;28;19916;-35
2022/08/23 02:45:50;;;;;;;;;;;;;;;17.85;73.72;101382.66;5076679;28;19934;-35
2022/08/23 02:48:15;;;;;;;;;;;;;;;17.85;73.88;101371.72;5076568;28;20003;-35
2022/08/23 02:50:40;;;;;;;;;;;;;;;17.88;73.76;101373.94;5076655;28;19944;-35
2022/08/23 02:53:06;;;;;;;;;;;;;;;17.85;73.67;101372.56;5077028;28;19921;-35
2022/08/23 02:55:31;;;;;;;;;;;;;;;17.86;73.42;101376.09;5076538;28;19912;-35
2022/08/23 02:57:57;;;;;;;;;;;;;;;17.85;74.10;101383.50;5076606;28;19973;-35
2022/08/23 03:00:24;;;;;;;;;;;;;;;17.81;74.14;101381.56;5077177;28;19912;-35
2022/08/23 03:02:50;;;;;;;;;;;;;;;17.79;73.74;101389.22;5076111;28;19912;-35
2022/08/23 03:05:15;;;;;;;;;;;;;;;17.78;73.74;101385.66;5077065;28;20057;-35
2022/08/23 03:07:41;;;;;;;;;;;;;;;17.77;74.41;101396.88;5076255;28;20002;-35
2022/08/23 03:10:08;;;;;;;;;;;;;;;17.73;74.02;101394.66;5076256;28;19919;-35
2022/08/23 03:12:33;;;;;;;;;;;;;;;17.76;74.03;101393.28;5075917;28;19916;-35
2022/08/23 03:14:58;;;;;;;;;;;;;;;17.79;74.01;101397.44;5075961;28;20065;-35
2022/08/23 03:17:24;;;;;;;;;;;;;;;17.79;74.00;101400.97;5075998;28;19916;-35
2022/08/23 03:19:51;;;;;;;;;;;;;;;17.81;74.14;101407.00;5075821;28;20003;-35
2022/08/23 03:22:17;;;;;;;;;;;;;;;17.78;76.55;101399.34;5076051;28;19922;-35
2022/08/23 03:24:42;;;;;;;;;;;;;;;17.73;75.45;101405.59;5075946;28;20019;-35
2022/08/23 03:27:07;;;;;;;;;;;;;;;17.70;74.95;101403.34;5076580;28;19960;-35
2022/08/23 03:29:32;;;;;;;;;;;;;;;17.70;74.62;101397.88;5076386;28;19912;-35
2022/08/23 03:31:58;;;;;;;;;;;;;;;17.73;75.07;101405.59;5076109;28;19973;-35
2022/08/23 03:34:24;;;;;;;;;;;;;;;17.74;74.69;101404.50;5075784;28;19970;-35
2022/08/23 03:36:49;;;;;;;;;;;;;;;17.75;75.24;101403.41;5075023;28;19963;-35
2022/08/23 03:39:15;;;;;;;;;;;;;;;17.75;74.78;101399.84;5075282;28;19912;-35
2022/08/23 03:41:40;;;;;;;;;;;;;;;17.74;75.33;101399.03;5075722;28;19966;-35
2022/08/23 03:44:05;;;;;;;;;;;;;;;17.75;74.92;101403.41;5075356;28;20454;-35
2022/08/23 03:46:31;;;;;;;;;;;;;;;17.77;75.59;101413.28;5075833;28;20015;-35
2022/08/23 03:48:58;;;;;;;;;;;;;;;17.73;75.52;101408.34;5075709;28;19912;-35
2022/08/23 03:51:24;;;;;;;;;;;;;;;17.73;75.49;101413.81;5076324;28;19996;-35
2022/08/23 03:53:50;;;;;;;;;;;;;;;17.74;75.15;101401.78;5075129;28;20037;-35
2022/08/23 03:56:24;;;;;;;;;;;;;;;17.74;76.05;101409.16;5076159;28;19971;-35
2022/08/23 03:58:50;;;;;;;;;;;;;;;17.71;75.78;101410.50;5075251;28;19970;-35
2022/08/23 04:01:15;;;;;;;;;;;;;;;17.70;75.88;101411.56;5075568;28;19981;-35
2022/08/23 04:03:42;;;;;;;;;;;;;;;17.72;75.62;101411.31;5075150;28;19920;-35
2022/08/23 04:06:07;;;;;;;;;;;;;;;17.72;76.18;101405.84;5074597;28;19931;-35
2022/08/23 04:08:33;;;;;;;;;;;;;;;17.72;75.58;101408.59;5075053;28;19912;-35
2022/08/23 04:10:58;;;;;;;;;;;;;;;17.73;75.70;101408.34;5074823;28;19917;-35
2022/08/23 04:13:24;;;;;;;;;;;;;;;17.73;75.94;101405.59;5075331;28;20281;-35
2022/08/23 04:15:49;;;;;;;;;;;;;;;17.72;75.80;101412.13;5075824;28;19974;-35
2022/08/23 04:18:14;;;;;;;;;;;;;;;17.70;75.22;101414.28;5074624;28;19920;-35
2022/08/23 04:20:40;;;;;;;;;;;;;;;17.69;75.39;101418.13;5074668;28;19916;-35
2022/08/23 04:23:06;;;;;;;;;;;;;;;17.66;78.42;101412.34;5074816;28;19923;-35
2022/08/23 04:25:32;;;;;;;;;;;;;;;17.62;76.85;101416.72;5074815;28;20375;-35
2022/08/23 04:27:57;;;;;;;;;;;;;;;17.58;77.38;101418.34;5075385;28;19912;-35
2022/08/23 04:30:22;;;;;;;;;;;;;;;17.57;76.46;101416.66;5074466;28;20027;-35
2022/08/23 04:32:48;;;;;;;;;;;;;;;17.57;76.77;101414.78;5074321;28;20010;-35
2022/08/23 04:35:13;;;;;;;;;;;;;;;17.57;76.54;101413.94;5074851;28;19935;-35
2022/08/23 04:37:39;;;;;;;;;;;;;;;17.58;76.68;101416.44;5074435;28;19912;-35
2022/08/23 04:42:48;;;;;;;;;;;;;;;17.58;77.65;101430.09;5074805;28;19920;-35
2022/08/23 04:45:13;;;;;;;;;;;;;;;17.55;77.46;101419.69;5075188;28;19913;-35
2022/08/23 04:47:40;;;;;;;;;;;;;;;17.55;77.10;101421.59;5074458;28;19920;-35
2022/08/23 04:50:05;;;;;;;;;;;;;;;17.57;77.03;101424.88;5075054;28;19962;-35
2022/08/23 04:52:31;;;;;;;;;;;;;;;17.57;77.01;101420.25;5074186;28;19912;-35
2022/08/23 04:54:56;;;;;;;;;;;;;;;17.62;76.95;101427.66;5074022;28;20314;-35
2022/08/23 04:57:21;;;;;;;;;;;;;;;17.66;77.03;101434.22;5074142;28;19912;-35
2022/08/23 04:59:46;;;;;;;;;;;;;;;17.70;76.85;101438.91;5074605;28;19913;-35
2022/08/23 05:02:13;;;;;;;;;;;;;;;17.72;77.04;101441.41;5074581;28;19912;-35
2022/08/23 05:04:38;;;;;;;;;;;;;;;17.75;76.99;101441.72;5073983;28;19912;-35
2022/08/23 05:07:03;;;;;;;;;;;;;;;17.79;76.82;101439.28;5074358;28;19965;-36
2022/08/23 05:09:28;;;;;;;;;;;;;;;17.84;76.63;101441.22;5074179;28;19920;-35
2022/08/23 05:11:54;;;;;;;;;;;;;;;17.85;76.69;101443.69;5074236;28;19920;-35
2022/08/23 05:14:19;;;;;;;;;;;;;;;17.88;77.09;101445.06;5073688;28;19923;-35
2022/08/23 05:16:44;;;;;;;;;;;;;;;17.90;76.40;101440.16;5074448;28;20268;-35
2022/08/23 05:19:09;;;;;;;;;;;;;;;17.94;76.55;101444.00;5073503;28;20364;-35
2022/08/23 05:21:34;;;;;;;;;;;;;;;17.96;76.95;101439.09;5073983;28;19916;-35
2022/08/23 05:24:00;;;;;;;;;;;;;;;17.96;76.54;101434.47;5073666;28;20403;-35
2022/08/23 05:26:25;;;;;;;;;;;;;;;17.99;76.65;101439.38;5074476;28;20272;-35
2022/08/23 05:28:50;;;;;;;;;;;;;;;17.99;76.52;101433.09;5073403;28;19920;-35
2022/08/23 05:31:18;;;;;;;;;;;;;;;18.00;76.76;101432.81;5074144;28;20361;-35
2022/08/23 05:33:43;;;;;;;;;;;;;;;18.01;76.75;101439.13;5073575;28;19912;-35
2022/08/23 05:36:10;;;;;;;;;;;;;;;18.03;76.60;101434.22;5073843;28;19913;-35
2022/08/23 05:38:35;;;;;;;;;;;;;;;18.05;76.74;101448.44;5073227;28;20073;-35
2022/08/23 05:41:01;;;;;;;;;;;;;;;18.09;76.93;101456.94;5073515;28;20011;-35
2022/08/23 05:43:26;;;;;;;;;;;;;;;18.11;77.17;101458.34;5073564;28;19912;-35
2022/08/23 05:46:03;;;;;;;;;;;;;;;18.17;76.77;101459.19;5073297;28;19927;-35
2022/08/23 05:48:28;;;;;;;;;;;;;;;18.23;77.07;101471.78;5073126;28;19916;-35
2022/08/23 05:50:53;;;;;;;;;;;;;;;18.30;76.41;101475.13;5074250;28;20058;-35
2022/08/23 05:53:19;;;;;;;;;;;;;;;18.38;76.60;101480.06;5073378;28;20474;-35
2022/08/23 05:55:44;;;;;;;;;;;;;;;18.45;76.54;101472.44;5074237;28;19912;-35
2022/08/23 05:58:10;;;;;;;;;;;;;;;18.49;77.54;101478.19;5073303;28;19913;-35
2022/08/23 06:00:35;;;;;;;;;;;;;;;18.54;76.90;101480.94;5076059;28;19916;-35
2022/08/23 06:03:00;;;;;;;;;;;;;;;18.60;76.85;101477.16;5078030;28;20246;-35
2022/08/23 06:05:25;;;;;;;;;;;;;;;18.67;76.56;101474.16;5077206;28;20390;-35
2022/08/23 06:07:51;;;;;;;;;;;;;;;18.72;76.62;101474.19;5077223;28;19912;-35
2022/08/23 06:10:19;;;;;;;;;;;;;;;18.76;76.39;101481.59;5077764;28;19981;-35
2022/08/23 06:12:44;;;;;;;;;;;;;;;18.80;76.66;101486.56;5076068;28;20366;-35
2022/08/23 06:15:09;;;;;;;;;;;;;;;18.82;76.34;101481.59;5077157;28;20003;-35
2022/08/23 06:17:34;;;;;;;;;;;;;;;18.85;76.44;101489.28;5077164;28;20365;-35
2022/08/23 06:20:00;;;;;;;;;;;;;;;18.88;75.91;101483.25;5077357;28;19916;-35
2022/08/23 06:22:25;;;;;;;;;;;;;;;18.91;76.19;101477.25;5077138;28;20003;-35
2022/08/23 06:24:50;;;;;;;;;;;;;;;18.95;75.48;101489.31;5077289;28;19912;-36
2022/08/23 06:27:15;;;;;;;;;;;;;;;18.98;75.65;101483.28;5077230;28;20470;-35
2022/08/23 06:29:41;;;;;;;;;;;;;;;19.01;75.56;101490.97;5075749;28;20426;-35
2022/08/23 06:32:07;;;;;;;;;;;;;;;19.01;76.14;101486.31;5077889;28;20002;-36
2022/08/23 06:34:33;;;;;;;;;;;;;;;19.00;75.92;101481.09;5077048;28;19924;-35
2022/08/23 06:37:04;;;;;;;;;;;;;;;18.99;75.82;101490.41;5077089;28;19912;-35
2022/08/23 06:39:30;;;;;;;;;;;;;;;18.97;75.71;101489.84;5076676;28;19919;-36
2022/08/23 06:42:00;;;;;;;;;;;;;;;18.95;76.25;101492.88;5076922;28;19917;-35
2022/08/23 06:44:26;;;;;;;;;;;;;;;18.96;76.32;101496.44;5076814;28;19916;-36
2022/08/23 06:46:51;;;;;;;;;;;;;;;18.96;76.32;101501.91;5077429;28;20003;-35
2022/08/23 06:49:17;;;;;;;;;;;;;;;19.01;77.95;101499.19;5076688;28;19943;-35
2022/08/23 06:51:43;;;;;;;;;;;;;;;19.05;77.14;101494.81;5076707;28;19978;-36
2022/08/23 06:54:10;;;;;;;;;;;;;;;19.07;76.53;101494.53;5076401;28;19912;-35
2022/08/23 06:56:35;;;;;;;;;;;;;;;19.10;77.55;101496.75;5076250;28;19939;-36
2022/08/23 06:59:04;;;;;;;;;;;;;;;19.14;77.45;101495.09;5076480;28;19912;-36
2022/08/23 07:01:31;;;;;;;;;;;;;;;19.17;77.23;101492.63;5076275;28;19912;-35
2022/08/23 07:03:56;;;;;;;;;;;;;;;19.21;77.44;101490.97;5076240;28;19912;-35
2022/08/23 07:06:22;;;;;;;;;;;;;;;19.26;77.02;101499.22;5076237;28;19913;-35
2022/08/23 07:08:48;;;;;;;;;;;;;;;19.32;77.20;101490.97;5076430;28;20350;-36
2022/08/23 07:11:13;;;;;;;;;;;;;;;19.40;77.10;101490.44;5075707;28;19956;-37
2022/08/23 07:13:39;;;;;;;;;;;;;;;19.46;76.52;101486.59;5075999;28;20003;-34
2022/08/23 07:16:04;;;;;;;;;;;;;;;19.54;76.98;101488.81;5076821;28;19916;-34
2022/08/23 07:18:29;;;;;;;;;;;;;;;19.61;76.23;101494.84;5075683;28;19962;-34
2022/08/23 07:20:58;;;;;;;;;;;;;;;19.70;76.08;101493.19;5076253;28;19923;-34
2022/08/23 07:23:24;;;;;;;;;;;;;;;19.79;75.86;101491.53;5075638;28;20379;-34
2022/08/23 07:25:50;;;;;;;;;;;;;;;19.87;75.76;101492.91;5076165;28;20288;-34
2022/08/23 07:28:15;;;;;;;;;;;;;;;19.96;75.75;101504.13;5075749;28;19917;-34
2022/08/23 07:30:40;;;;;;;;;;;;;;;20.06;75.68;101498.63;5075983;28;20319;-35
2022/08/23 07:33:06;;;;;;;;;;;;;;;20.14;75.37;101497.22;5075691;28;19974;-34
2022/08/23 07:35:31;;;;;;;;;;;;;;;20.22;75.01;101496.66;5074358;28;19995;-35
2022/08/23 07:37:56;;;;;;;;;;;;;;;20.32;74.63;101508.41;5074531;28;20292;-34
2022/08/23 07:40:22;;;;;;;;;;;;;;;20.41;74.03;101505.09;5075737;28;19912;-34
2022/08/23 07:42:47;;;;;;;;;;;;;;;20.50;73.89;101509.75;5075435;28;20402;-34
2022/08/23 07:45:13;;;;;;;;;;;;;;;20.61;73.50;101509.72;5075136;28;19912;-34
2022/08/23 07:47:40;;;;;;;;;;;;;;;20.71;73.18;101515.16;5075934;28;19920;-35
2022/08/23 07:50:06;;;;;;;;;;;;;;;20.79;73.05;101512.66;5075657;28;19927;-35
2022/08/23 07:52:31;;;;;;;;;;;;;;;20.88;73.06;101518.34;5075400;28;19999;-35
2022/08/23 07:54:56;;;;;;;;;;;;;;;20.99;72.81;101517.19;5075369;28;20324;-34
2022/08/23 07:57:21;;;;;;;;;;;;;;;21.07;72.61;101513.00;5074991;28;20447;-34
2022/08/23 07:59:47;;;;;;;;;;;;;;;21.15;72.11;101515.16;5075220;28;20030;-35
2022/08/23 08:02:13;;;;;;;;;;;;;;;21.24;71.81;101520.88;5075149;28;20331;-34
2022/08/23 08:04:38;;;;;;;;;;;;;;;21.31;69.74;101521.41;5074856;28;19916;-34
2022/08/23 08:07:04;;;;;;;;;;;;;;;21.41;69.33;101524.06;5074577;28;19912;-34
2022/08/23 08:09:29;;;;;;;;;;;;;;;21.51;69.22;101517.66;5074683;28;19913;-34
2022/08/23 08:11:55;;;;;;;;;;;;;;;21.57;69.88;101527.53;5074967;28;20284;-34
2022/08/23 08:14:20;;;;;;;;;;;;;;;21.65;69.53;101526.91;5074615;28;19917;-34
2022/08/23 08:16:47;;;;;;;;;;;;;;;21.76;69.24;101528.44;5075430;28;19912;-34
2022/08/23 08:19:14;;;;;;;;;;;;;;;21.87;69.47;101525.63;5074310;28;20364;-34
2022/08/23 08:21:40;;;;;;;;;;;;;;;21.97;69.48;101529.09;5074244;28;19912;-34
2022/08/23 08:24:06;;;;;;;;;;;;;;;22.04;68.86;101531.47;5074032;28;19923;-34
2022/08/23 08:26:31;;;;;;;;;;;;;;;22.02;68.85;101529.03;5075100;28;20273;-34
2022/08/23 08:28:57;;;;;;;;;;;;;;;22.01;69.21;101532.06;5074781;28;19913;-34
2022/08/23 08:31:22;;;;;;;;;;;;;;;22.09;68.76;101529.50;5075031;28;20333;-34
2022/08/23 08:33:48;;;;;;;;;;;;;;;22.17;68.65;101530.00;5074464;28;19912;-34
2022/08/23 08:36:32;;;;;;;;;;;;;;;22.22;67.61;101527.19;5074786;28;19912;-34
2022/08/23 08:38:57;;;;;;;;;;;;;;;22.29;68.62;101536.72;5075046;28;20260;-34
2022/08/23 08:41:29;;;;;;;;;;;;;;;22.40;68.54;101533.84;5075038;28;19912;-34
2022/08/23 08:44:07;;;;;;;;;;;;;;;22.52;68.33;101531.53;5073995;28;19912;-34
2022/08/23 08:46:45;;;;;;;;;;;;;;;22.67;68.35;101536.00;5074997;28;20311;-34
2022/08/23 08:49:31;;;;;;;;;;;;;;;22.83;68.04;101537.44;5074058;28;20379;-34
2022/08/23 08:52:13;;;;;;;;;;;;;;;22.99;67.93;101538.09;5073743;28;20268;-34
2022/08/23 08:54:40;;;;;;;;;;;;;;;23.16;66.49;101551.34;5074304;28;19948;-34
2022/08/23 08:57:06;;;;;;;;;;;;;;;23.30;66.60;101542.03;5074063;28;19966;-34
2022/08/23 08:59:46;;;;;;;;;;;;;;;23.44;63.96;101547.59;5073927;28;19912;-35
2022/08/23 09:02:16;;;;;;;;;;;;;;;23.62;66.04;101538.47;5074784;28;20328;-35
2022/08/23 09:04:41;;;;;;;;;;;;;;;23.78;65.04;101549.28;5073850;28;19912;-35
2022/08/23 09:07:11;;;;;;;;;;;;;;;23.85;64.92;101550.50;5073830;28;19919;-35
2022/08/23 09:10:12;;;;;;;;;;;;;;;23.89;64.35;101547.97;5074057;28;20310;-35
2022/08/23 09:12:40;;;;;;;;;;;;;;;23.96;64.35;101550.34;5051476;28;19912;-35
2022/08/23 09:15:09;;;;;;;;;;;;;;;24.09;64.39;101553.13;5051331;28;19920;-35
2022/08/23 09:17:34;;;;;;;;;;;;;;;24.29;64.22;101551.91;5051394;28;19919;-35
2022/08/23 09:20:02;;;;;;;;;;;;;;;24.42;63.02;101550.31;5051326;28;19920;-35
2022/08/23 09:22:32;;;;;;;;;;;;;;;24.58;64.24;101554.41;5051138;28;20004;-35
2022/08/23 09:24:57;;;;;;;;;;;;;;;24.65;63.04;101548.47;5051468;28;19912;-35
2022/08/23 09:27:23;;;;;;;;;;;;;;;24.69;63.51;101552.22;5051160;28;20028;-34
2022/08/23 09:29:54;;;;;;;;;;;;;;;24.78;61.15;101552.31;5051522;28;19913;-35
2022/08/23 09:32:36;;;;;;;;;;;;;;;24.94;61.95;101548.13;5051327;28;20020;-35
2022/08/23 09:35:10;;;;;;;;;;;;;;;25.11;61.43;101550.25;5051074;28;20435;-35
2022/08/23 09:37:47;;;;;;;;;;;;;;;25.25;60.09;101544.66;5051145;28;19940;-35
2022/08/23 09:40:12;;;;;;;;;;;;;;;25.35;60.27;101553.53;5051442;28;19919;-35
2022/08/23 09:42:38;;;;;;;;;;;;;;;25.47;60.37;101552.16;5051483;28;19913;-35
2022/08/23 09:45:05;;;;;;;;;;;;;;;25.62;60.04;101549.00;5051070;28;19921;-35
2022/08/23 09:47:33;;;;;;;;;;;;;;;25.73;58.58;101547.63;5070726;28;19918;-34
2022/08/23 09:50:06;;;;;;;;;;;;;;;25.81;59.05;101546.88;5073891;28;19912;-35
2022/08/23 09:52:34;;;;;;;;;;;;;;;25.95;57.75;101549.56;5073345;28;19924;-35
2022/08/23 09:55:07;;;;;;;;;;;;;;;26.07;56.35;101543.44;5073376;28;20007;-35
2022/08/23 09:57:33;;;;;;;;;;;;;;;26.18;56.98;101544.78;5073551;28;19916;-35
2022/08/23 10:00:17;;;;;;;;;;;;;;;26.23;55.99;101539.09;5073682;28;20027;-35
2022/08/23 10:02:43;;;;;;;;;;;;;;;26.34;55.55;101534.88;5074070;28;19916;-35
2022/08/23 10:05:14;;;;;;;;;;;;;;;26.40;55.99;101536.41;5073473;28;19958;-35
2022/08/23 10:07:41;;;;;;;;;;;;;;;26.50;56.10;101528.94;5073689;28;19912;-35
2022/08/23 10:10:14;;;;;;;;;;;;;;;26.62;53.63;101537.47;5073182;28;19913;-36
2022/08/23 10:12:40;;;;;;;;;;;;;;;26.69;52.57;101530.31;5072871;28;19919;-36
2022/08/23 10:15:05;;;;;;;;;;;;;;;26.79;54.54;101531.94;5073378;28;19921;-36
2022/08/23 10:17:36;;;;;;;;;;;;;;;26.87;54.40;101525.56;5073831;28;19965;-36
2022/08/23 10:20:07;;;;;;;;;;;;;;;26.95;51.86;101522.00;5073285;28;19935;-36
2022/08/23 10:22:44;;;;;;;;;;;;;;;27.08;52.39;101524.97;5073252;28;19916;-36
2022/08/23 10:25:32;;;;;;;;;;;;;;;27.17;51.61;101531.34;5072044;28;20255;-36
2022/08/23 10:30:53;;;;;;;;;;;;;;;27.42;50.75;101533.28;5073031;28;19931;-36
2022/08/23 10:33:22;;;;;;;;;;;;;;;27.51;50.09;101535.22;5072952;28;20016;-36
2022/08/23 10:35:54;;;;;;;;;;;;;;;27.57;49.66;101529.16;5072949;28;19941;-35
2022/08/23 10:38:38;;;;;;;;;;;;;;;27.61;50.41;101535.69;5072791;28;19919;-35
2022/08/23 10:41:07;;;;;;;;;;;;;;;27.64;47.64;101532.28;5071904;28;19970;-35
2022/08/23 10:43:32;;;;;;;;;;;;;;;27.65;47.78;101530.31;5072571;28;20448;-35
2022/08/23 10:46:00;;;;;;;;;;;;;;;27.67;48.54;101528.00;5074530;28;19991;-35
2022/08/23 10:48:27;;;;;;;;;;;;;;;27.76;47.12;101528.00;5076904;28;19928;-34
2022/08/23 10:50:55;;;;;;;;;;;;;;;27.85;49.83;101523.25;5076165;28;19917;-34
2022/08/23 10:53:22;;;;;;;;;;;;;;;27.96;48.47;101524.50;5076587;28;19912;-35
2022/08/23 10:56:01;;;;;;;;;;;;;;;28.04;47.23;101514.53;5076055;28;19919;-35
2022/08/23 10:58:28;;;;;;;;;;;;;;;28.11;50.40;101512.88;5076992;28;19959;-35
2022/08/23 11:00:54;;;;;;;;;;;;;;;28.23;48.31;101517.72;5076806;28;19913;-35
2022/08/23 11:03:28;;;;;;;;;;;;;;;28.32;48.65;101515.72;5077036;28;19919;-35
2022/08/23 11:06:12;;;;;;;;;;;;;;;28.43;48.12;101507.81;5076259;28;19937;-35
2022/08/23 11:08:42;;;;;;;;;;;;;;;28.47;46.81;101515.16;5076181;28;19951;-35
2022/08/23 11:11:27;;;;;;;;;;;;;;;28.53;49.11;101506.63;5075781;28;19912;-35
2022/08/23 11:13:53;;;;;;;;;;;;;;;28.58;45.76;101501.66;5075834;28;20008;-35
2022/08/23 11:16:27;;;;;;;;;;;;;;;28.62;46.08;101504.59;5075944;28;20332;-35
2022/08/23 11:18:53;;;;;;;;;;;;;;;28.77;47.08;101501.22;5076263;28;19964;-35
2022/08/23 11:21:18;;;;;;;;;;;;;;;28.72;46.96;101498.63;5076292;28;19916;-35
2022/08/23 11:23:43;;;;;;;;;;;;;;;28.79;47.79;101504.47;5075811;28;20382;-35
2022/08/23 11:26:10;;;;;;;;;;;;;;;28.96;47.79;101511.91;5076891;28;19991;-35
2022/08/23 11:28:44;;;;;;;;;;;;;;;29.17;48.38;101504.34;5076363;28;19922;-35
2022/08/23 11:31:09;;;;;;;;;;;;;;;29.37;45.91;101505.47;5076461;28;20010;-35
2022/08/23 11:33:41;;;;;;;;;;;;;;;29.48;45.82;101503.91;5076622;28;19958;-35
2022/08/23 11:36:07;;;;;;;;;;;;;;;29.52;43.06;101512.34;5075710;28;19912;-35
2022/08/23 11:38:47;;;;;;;;;;;;;;;29.51;43.08;101508.75;5075456;28;20327;-34
2022/08/23 11:41:18;;;;;;;;;;;;;;;29.45;43.49;101509.34;5074494;28;19920;-34
2022/08/23 11:43:46;;;;;;;;;;;;;;;29.15;44.58;101511.41;5075210;28;20423;-35
2022/08/23 11:46:14;;;;;;;;;;;;;;;29.21;45.66;101507.25;5075431;28;19913;-35
2022/08/23 11:48:42;;;;;;;;;;;;;;;29.32;43.31;101502.91;5075523;28;20360;-36
2022/08/23 11:51:13;;;;;;;;;;;;;;;29.25;43.00;101508.22;5075661;28;19919;-36
2022/08/23 11:53:38;;;;;;;;;;;;;;;29.27;44.24;101503.09;5075330;28;20451;-36
2022/08/23 11:56:16;;;;;;;;;;;;;;;29.33;43.58;101509.28;5075257;28;19960;-36
2022/08/23 11:59:02;;;;;;;;;;;;;;;29.46;43.68;101503.41;5073941;28;19912;-36
2022/08/23 12:01:32;;;;;;;;;;;;;;;29.57;42.59;101509.38;5075463;28;19916;-36
2022/08/23 12:04:24;;;;;;;;;;;;;;;29.58;41.63;101499.91;5075457;28;19995;-36
2022/08/23 12:06:57;;;;;;;;;;;;;;;29.40;43.38;101509.56;5075158;28;19912;-36
2022/08/23 12:09:22;;;;;;;;;;;;;;;29.33;44.51;101512.06;5075219;28;20006;-36
2022/08/23 12:11:56;;;;;;;;;;;;;;;29.46;42.90;101508.97;5075525;28;19951;-36
2022/08/23 12:14:30;;;;;;;;;;;;;;;29.63;42.60;101501.66;5074765;28;19995;-36
2022/08/23 12:17:25;;;;;;;;;;;;;;;29.57;41.59;101514.97;5074474;28;19920;-36
2022/08/23 12:19:59;;;;;;;;;;;;;;;29.63;41.82;101507.22;5070503;28;20019;-36
2022/08/23 12:22:28;;;;;;;;;;;;;;;29.64;40.67;101508.84;5074826;28;19913;-36
2022/08/23 12:25:02;;;;;;;;;;;;;;;29.78;42.29;101511.31;5074693;28;20006;-36
2022/08/23 12:27:31;;;;;;;;;;;;;;;29.91;40.41;101502.59;5074724;28;19934;-36
2022/08/23 12:29:56;;;;;;;;;;;;;;;29.99;42.51;101492.50;5074686;28;19912;-36
2022/08/23 12:32:21;;;;;;;;;;;;;;;29.86;40.73;101508.41;5074869;28;19912;-36
2022/08/23 12:35:02;;;;;;;;;;;;;;;29.78;41.33;101489.81;5074828;28;20334;-36
2022/08/23 12:37:30;;;;;;;;;;;;;;;29.83;40.81;101499.94;5074561;28;19916;-36
2022/08/23 12:39:57;;;;;;;;;;;;;;;29.81;41.63;101505.84;5074326;28;19916;-36
2022/08/23 12:42:30;;;;;;;;;;;;;;;29.96;39.80;101505.16;5074863;28;20330;-36
2022/08/23 12:45:00;;;;;;;;;;;;;;;30.10;40.77;101504.81;5074530;28;19938;-36
2022/08/23 12:47:26;;;;;;;;;;;;;;;30.26;41.30;101505.81;5074407;28;19916;-36
2022/08/23 12:49:57;;;;;;;;;;;;;;;30.43;41.40;101507.53;5074134;28;20399;-35